createdAt,value
2019-05-13T00:02:04.582Z,13.70
2019-05-13T00:04:33.720Z,13.40
2019-05-13T00:07:01.414Z,13.40
2019-05-13T00:09:28.882Z,13.40
2019-05-13T00:11:56.232Z,13.40
2019-05-13T00:14:23.940Z,13.30
2019-05-13T00:16:53.467Z,13.30
2019-05-13T00:19:20.652Z,13.30
2019-05-13T00:21:48.078Z,13.30
2019-05-13T00:24:15.366Z,13.30
2019-05-13T00:26:44.473Z,13.30
2019-05-13T00:29:14.115Z,13.30
2019-05-13T00:31:43.712Z,13.30
2019-05-13T00:34:10.613Z,13.30
2019-05-13T00:36:38.109Z,13.30
2019-05-13T00:39:07.188Z,13.30
2019-05-13T00:41:34.541Z,13.30
2019-05-13T00:44:03.806Z,13.30
2019-05-13T00:46:33.839Z,13.40
2019-05-13T00:49:00.713Z,13.30
2019-05-13T00:51:28.081Z,13.30
2019-05-13T00:53:55.473Z,13.30
2019-05-13T00:56:23.770Z,13.30
2019-05-13T00:58:51.274Z,13.30
2019-05-13T01:01:18.618Z,13.30
2019-05-13T01:03:46.115Z,13.30
2019-05-13T01:06:13.542Z,13.40
2019-05-13T01:08:40.876Z,13.30
2019-05-13T01:11:08.280Z,13.30
2019-05-13T01:13:35.735Z,13.30
2019-05-13T01:16:03.691Z,13.30
2019-05-13T01:18:31.302Z,13.30
2019-05-13T01:20:58.679Z,13.30
2019-05-13T01:23:26.133Z,13.30
2019-05-13T01:25:54.436Z,13.30
2019-05-13T01:28:23.901Z,13.30
2019-05-13T01:30:53.795Z,13.30
2019-05-13T01:33:20.622Z,13.30
2019-05-13T01:35:47.996Z,13.30
2019-05-13T01:38:15.330Z,13.30
2019-05-13T01:40:43.966Z,13.30
2019-05-13T01:43:14.121Z,13.30
2019-05-13T01:45:40.745Z,13.30
2019-05-13T01:48:08.304Z,13.30
2019-05-13T01:50:35.872Z,13.30
2019-05-13T01:53:04.311Z,13.30
2019-05-13T01:55:33.948Z,13.30
2019-05-13T01:58:03.894Z,13.30
2019-05-13T02:00:30.729Z,13.30
2019-05-13T02:02:58.160Z,13.20
2019-05-13T02:05:25.540Z,13.30
2019-05-13T02:07:57.801Z,13.30
2019-05-13T02:10:44.333Z,13.30
2019-05-13T02:13:10.832Z,13.30
2019-05-13T02:15:38.167Z,13.30
2019-05-13T02:18:05.499Z,13.30
2019-05-13T02:20:33.523Z,13.30
2019-05-13T02:23:00.977Z,13.30
2019-05-13T02:25:28.311Z,13.30
2019-05-13T02:27:55.592Z,13.30
2019-05-13T02:30:26.578Z,13.40
2019-05-13T02:32:53.134Z,13.30
2019-05-13T02:35:23.113Z,13.30
2019-05-13T02:37:52.566Z,13.30
2019-05-13T02:40:22.667Z,13.30
2019-05-13T02:42:52.157Z,13.30
2019-05-13T02:45:18.644Z,13.30
2019-05-13T02:47:46.180Z,13.30
2019-05-13T02:50:14.084Z,13.30
2019-05-13T02:52:44.404Z,13.30
2019-05-13T02:55:12.344Z,13.30
2019-05-13T02:57:43.279Z,13.30
2019-05-13T03:00:12.731Z,13.30
2019-05-13T03:02:39.012Z,13.30
2019-05-13T03:05:07.517Z,13.30
2019-05-13T03:07:34.851Z,13.30
2019-05-13T03:10:04.192Z,13.30
2019-05-13T03:12:32.367Z,13.30
2019-05-13T03:15:02.672Z,13.30
2019-05-13T03:17:43.292Z,13.30
2019-05-13T03:20:15.772Z,13.30
2019-05-13T03:22:43.099Z,13.30
2019-05-13T03:25:12.877Z,13.30
2019-05-13T03:27:38.730Z,13.30
2019-05-13T03:30:06.171Z,13.30
2019-05-13T03:32:43.184Z,13.30
2019-05-13T03:35:07.205Z,13.30
2019-05-13T03:37:34.890Z,13.30
2019-05-13T03:40:03.297Z,13.30
2019-05-13T03:42:33.715Z,13.30
2019-05-13T03:45:03.865Z,13.30
2019-05-13T03:47:33.578Z,13.30
2019-05-13T03:50:03.553Z,13.20
2019-05-13T03:52:33.529Z,13.10
2019-05-13T03:55:02.881Z,13.20
2019-05-13T03:57:29.178Z,13.20
2019-05-13T03:59:56.550Z,13.20
2019-05-13T04:02:23.996Z,13.50
2019-05-13T04:04:53.108Z,13.20
2019-05-13T04:07:23.816Z,13.50
2019-05-13T04:09:52.520Z,13.20
2019-05-13T04:12:22.572Z,13.20
2019-05-13T04:14:48.739Z,13.20
2019-05-13T04:17:16.197Z,13.20
2019-05-13T04:19:43.638Z,13.20
2019-05-13T04:22:12.874Z,13.20
2019-05-13T04:24:42.711Z,13.20
2019-05-13T04:27:12.894Z,13.20
2019-05-13T04:29:38.858Z,13.20
2019-05-13T04:32:06.419Z,13.20
2019-05-13T04:34:34.253Z,13.20
2019-05-13T04:37:02.390Z,13.20
2019-05-13T04:39:41.673Z,13.20
2019-05-13T04:42:02.034Z,13.20
2019-05-13T04:44:28.499Z,13.20
2019-05-13T04:46:56.449Z,13.20
2019-05-13T04:49:24.123Z,13.20
2019-05-13T04:51:52.473Z,13.30
2019-05-13T04:54:22.533Z,13.30
2019-05-13T04:56:52.241Z,13.30
2019-05-13T04:59:18.530Z,13.40
2019-05-13T05:02:36.777Z,13.40
2019-05-13T05:05:04.691Z,13.40
2019-05-13T05:07:52.563Z,13.40
2019-05-13T05:11:03.121Z,13.40
2019-05-13T05:13:58.967Z,17.40
2019-05-13T05:17:42.963Z,13.40
2019-05-13T05:20:23.218Z,13.20
2019-05-13T05:23:39.040Z,13.50
2019-05-13T05:26:45.294Z,13.50
2019-05-13T05:29:33.918Z,13.60
2019-05-13T05:32:21.544Z,13.60
2019-05-13T05:35:14.692Z,13.60
2019-05-13T05:38:12.596Z,13.70
2019-05-13T05:40:42.587Z,13.70
2019-05-13T05:43:11.678Z,13.80
2019-05-13T05:45:41.166Z,13.80
2019-05-13T05:48:08.344Z,13.90
2019-05-13T05:50:42.375Z,13.90
2019-05-13T05:53:13.886Z,13.90
2019-05-13T05:55:42.274Z,14.00
2019-05-13T05:58:12.746Z,14.10
2019-05-13T06:00:41.543Z,14.10
2019-05-13T06:03:09.167Z,14.10
2019-05-13T06:05:36.808Z,14.20
2019-05-13T06:08:04.539Z,14.20
2019-05-13T06:10:45.804Z,14.20
2019-05-13T06:13:02.876Z,14.30
2019-05-13T06:15:31.484Z,14.50
2019-05-13T06:17:59.021Z,14.30
2019-05-13T06:20:26.595Z,14.40
2019-05-13T06:22:53.948Z,14.40
2019-05-13T06:25:23.300Z,14.40
2019-05-13T06:27:51.269Z,14.40
2019-05-13T06:30:21.509Z,14.50
2019-05-13T06:32:48.465Z,14.50
2019-05-13T06:35:15.875Z,14.50
2019-05-13T06:37:43.404Z,14.60
2019-05-13T06:40:12.383Z,14.60
2019-05-13T06:42:41.699Z,14.60
2019-05-13T06:45:12.311Z,14.60
2019-05-13T06:47:41.297Z,14.60
2019-05-13T06:50:11.625Z,14.70
2019-05-13T06:52:38.719Z,18.00
2019-05-13T06:55:06.161Z,14.80
2019-05-13T06:57:33.747Z,14.70
2019-05-13T07:00:01.823Z,14.70
2019-05-13T07:02:31.858Z,14.80
2019-05-13T07:04:58.909Z,14.90
2019-05-13T07:07:26.365Z,14.90
2019-05-13T07:09:53.717Z,14.90
2019-05-13T07:12:21.943Z,15.00
2019-05-13T07:14:51.845Z,15.00
2019-05-13T07:17:22.539Z,15.00
2019-05-13T07:19:51.688Z,15.10
2019-05-13T07:22:22.694Z,15.10
2019-05-13T07:24:48.695Z,15.20
2019-05-13T07:27:16.144Z,15.20
2019-05-13T07:29:43.557Z,15.30
2019-05-13T07:32:12.010Z,15.30
2019-05-13T07:34:43.489Z,15.40
2019-05-13T07:37:11.175Z,15.40
2019-05-13T07:39:38.257Z,15.40
2019-05-13T07:42:06.329Z,15.50
2019-05-13T07:44:36.589Z,15.60
2019-05-13T07:47:04.074Z,15.60
2019-05-13T07:49:33.597Z,15.60
2019-05-13T07:52:01.835Z,15.70
2019-05-13T07:54:29.582Z,15.80
2019-05-13T07:56:57.005Z,15.90
2019-05-13T07:59:24.429Z,15.90
2019-05-13T08:01:52.328Z,16.10
2019-05-13T08:04:23.681Z,15.20
2019-05-13T08:06:49.087Z,16.30
2019-05-13T08:09:16.886Z,16.40
2019-05-13T08:12:00.231Z,16.50
2019-05-13T08:14:13.641Z,16.60
2019-05-13T08:16:42.739Z,16.70
2019-05-13T08:19:12.316Z,16.70
2019-05-13T08:21:41.704Z,16.90
2019-05-13T08:24:11.719Z,16.90
2019-05-13T08:26:44.962Z,16.90
2019-05-13T08:29:08.048Z,17.00
2019-05-13T08:31:35.496Z,14.10
2019-05-13T08:34:02.829Z,17.10
2019-05-13T08:36:32.539Z,17.00
2019-05-13T08:41:21.140Z,17.10
2019-05-13T08:43:48.419Z,17.20
2019-05-13T08:46:15.799Z,17.20
2019-05-13T08:48:43.167Z,17.30
2019-05-13T08:51:11.629Z,17.40
2019-05-13T08:53:39.346Z,17.50
2019-05-13T08:56:06.698Z,17.60
2019-05-13T08:58:34.283Z,17.80
2019-05-13T09:01:02.322Z,18.00
2019-05-13T09:03:32.582Z,18.10
2019-05-13T09:06:02.529Z,19.60
2019-05-13T09:08:31.834Z,18.60
2019-05-13T09:11:01.388Z,18.80
2019-05-13T09:13:28.240Z,19.20
2019-05-13T09:15:55.775Z,19.60
2019-05-13T09:18:23.106Z,20.00
2019-05-13T09:20:52.055Z,20.60
2019-05-13T09:23:22.175Z,21.10
2019-05-13T09:25:49.147Z,21.70
2019-05-13T09:28:16.606Z,22.20
2019-05-13T09:30:44.041Z,22.70
2019-05-13T09:33:11.627Z,23.20
2019-05-13T09:35:39.219Z,23.70
2019-05-13T09:38:06.586Z,24.10
2019-05-13T09:40:34.039Z,24.30
2019-05-13T09:43:02.562Z,24.30
2019-05-13T09:45:32.097Z,24.20
2019-05-13T09:48:01.461Z,24.10
2019-05-13T09:50:33.197Z,23.80
2019-05-13T09:52:57.811Z,23.50
2019-05-13T09:55:29.221Z,23.10
2019-05-13T09:57:54.443Z,22.80
2019-05-13T10:00:22.010Z,22.50
2019-05-13T10:02:51.407Z,24.40
2019-05-13T10:05:18.635Z,22.00
2019-05-13T10:07:46.203Z,21.80
2019-05-13T10:10:15.618Z,21.70
2019-05-13T10:12:42.963Z,21.70
2019-05-13T10:15:12.551Z,21.60
2019-05-13T10:17:42.766Z,21.60
2019-05-13T10:20:12.092Z,21.50
2019-05-13T10:22:41.706Z,21.40
2019-05-13T10:25:12.287Z,21.30
2019-05-13T10:27:41.901Z,21.20
2019-05-13T10:30:11.425Z,21.00
2019-05-13T10:32:42.282Z,20.80
2019-05-13T10:35:08.579Z,20.70
2019-05-13T10:37:36.215Z,20.50
2019-05-13T10:40:05.099Z,20.30
2019-05-13T10:42:32.822Z,20.10
2019-05-13T10:45:02.490Z,20.00
2019-05-13T10:47:29.391Z,19.90
2019-05-13T10:49:56.769Z,19.70
2019-05-13T10:52:24.702Z,19.70
2019-05-13T10:55:01.667Z,19.60
2019-05-13T10:57:28.158Z,19.50
2019-05-13T10:59:59.683Z,19.40
2019-05-13T11:02:25.213Z,19.40
2019-05-13T11:04:52.783Z,19.30
2019-05-13T11:07:22.468Z,19.20
2019-05-13T11:09:52.470Z,19.20
2019-05-13T11:12:18.919Z,19.10
2019-05-13T11:14:51.555Z,19.10
2019-05-13T11:17:16.334Z,19.10
2019-05-13T11:19:43.813Z,19.10
2019-05-13T11:22:12.293Z,19.00
2019-05-13T11:24:42.883Z,19.00
2019-05-13T11:27:11.795Z,19.70
2019-05-13T11:29:38.457Z,19.10
2019-05-13T11:32:05.959Z,19.20
2019-05-13T11:34:33.383Z,19.20
2019-05-13T11:37:03.761Z,19.40
2019-05-13T11:39:32.552Z,19.50
2019-05-13T11:42:02.043Z,19.60
2019-05-13T11:44:28.569Z,19.70
2019-05-13T11:46:56.297Z,19.90
2019-05-13T11:49:23.850Z,20.00
2019-05-13T11:51:52.063Z,20.10
2019-05-13T11:54:22.201Z,20.10
2019-05-13T11:56:52.140Z,20.10
2019-05-13T11:59:18.205Z,20.20
2019-05-13T12:01:45.659Z,20.20
2019-05-13T12:04:13.086Z,20.10
2019-05-13T12:06:48.036Z,20.10
2019-05-13T12:09:13.048Z,20.00
2019-05-13T12:11:39.349Z,20.00
2019-05-13T12:14:06.784Z,19.90
2019-05-13T12:16:35.162Z,19.90
2019-05-13T12:19:03.671Z,19.90
2019-05-13T12:21:31.422Z,19.80
2019-05-13T12:24:07.085Z,19.80
2019-05-13T12:26:28.328Z,19.90
2019-05-13T12:28:56.096Z,20.00
2019-05-13T12:31:23.448Z,20.00
2019-05-13T12:33:52.329Z,20.20
2019-05-13T12:36:23.632Z,20.30
2019-05-13T12:38:52.909Z,20.30
2019-05-13T12:41:18.856Z,20.40
2019-05-13T12:43:46.328Z,20.40
2019-05-13T12:46:13.730Z,20.30
2019-05-13T12:48:41.185Z,20.30
2019-05-13T12:51:08.655Z,20.20
2019-05-13T12:53:36.041Z,20.20
2019-05-13T12:56:03.855Z,20.10
2019-05-13T12:58:33.968Z,20.00
2019-05-13T13:01:01.591Z,20.00
2019-05-13T13:03:29.087Z,19.40
2019-05-13T13:06:21.224Z,19.90
2019-05-13T13:08:43.065Z,19.90
2019-05-13T13:10:58.637Z,20.50
2019-05-13T13:13:52.461Z,19.80
2019-05-13T13:15:55.555Z,19.80
2019-05-13T13:18:31.028Z,19.70
2019-05-13T13:21:05.194Z,19.70
2019-05-13T13:23:27.819Z,19.70
2019-05-13T13:25:57.171Z,19.70
2019-05-13T13:28:24.911Z,19.70
2019-05-13T13:30:53.073Z,19.80
2019-05-13T13:33:20.813Z,19.80
2019-05-13T13:35:58.616Z,19.80
2019-05-13T13:38:17.485Z,19.80
2019-05-13T13:40:53.820Z,19.70
2019-05-13T13:43:25.039Z,19.70
2019-05-13T13:46:07.671Z,19.70
2019-05-13T13:48:24.906Z,19.60
2019-05-13T13:50:48.559Z,19.70
2019-05-13T13:53:16.137Z,19.70
2019-05-13T13:55:44.631Z,19.70
2019-05-13T13:58:14.161Z,19.70
2019-05-13T14:00:59.700Z,19.80
2019-05-13T14:03:12.389Z,19.80
2019-05-13T14:05:42.886Z,19.90
2019-05-13T14:08:09.357Z,19.90
2019-05-13T14:10:36.806Z,20.00
2019-05-13T14:13:04.955Z,20.00
2019-05-13T14:15:34.414Z,20.00
2019-05-13T14:18:01.734Z,20.00
2019-05-13T14:20:29.199Z,20.00
2019-05-13T14:22:57.968Z,20.10
2019-05-13T14:25:25.734Z,20.10
2019-05-13T14:27:53.170Z,20.20
2019-05-13T14:30:21.751Z,20.20
2019-05-13T14:32:51.977Z,20.30
2019-05-13T14:35:18.762Z,20.30
2019-05-13T14:37:46.337Z,20.40
2019-05-13T14:40:14.179Z,20.50
2019-05-13T14:42:42.658Z,20.60
2019-05-13T14:45:12.205Z,20.60
2019-05-13T14:47:39.935Z,20.50
2019-05-13T14:50:07.558Z,20.60
2019-05-13T14:52:34.981Z,20.60
2019-05-13T14:55:02.425Z,20.60
2019-05-13T14:57:32.091Z,20.50
2019-05-13T15:00:02.170Z,20.50
2019-05-13T15:02:29.537Z,19.70
2019-05-13T15:04:58.369Z,24.00
2019-05-13T15:07:34.531Z,20.30
2019-05-13T15:10:10.888Z,20.30
2019-05-13T15:12:38.431Z,20.20
2019-05-13T15:15:06.248Z,20.10
2019-05-13T15:17:34.849Z,20.10
2019-05-13T15:20:02.400Z,20.00
2019-05-13T15:22:31.859Z,20.00
2019-05-13T15:24:59.226Z,19.90
2019-05-13T15:27:26.645Z,19.80
2019-05-13T15:29:54.036Z,19.80
2019-05-13T15:32:21.898Z,19.80
2019-05-13T15:34:51.723Z,19.90
2019-05-13T15:37:21.270Z,19.80
2019-05-13T15:39:48.133Z,19.90
2019-05-13T15:42:15.521Z,19.90
2019-05-13T15:44:42.984Z,19.90
2019-05-13T15:47:29.140Z,19.90
2019-05-13T15:49:39.819Z,19.90
2019-05-13T15:52:07.268Z,19.90
2019-05-13T15:54:34.713Z,17.00
2019-05-13T15:57:02.488Z,20.00
2019-05-13T15:59:30.054Z,20.00
2019-05-13T16:01:57.564Z,20.10
2019-05-13T16:04:25.046Z,20.20
2019-05-13T16:06:52.538Z,20.20
2019-05-13T16:09:20.425Z,20.20
2019-05-13T16:11:47.832Z,20.30
2019-05-13T16:14:15.331Z,20.30
2019-05-13T16:16:42.783Z,20.30
2019-05-13T16:19:10.107Z,20.40
2019-05-13T16:21:37.499Z,20.50
2019-05-13T16:24:05.126Z,20.40
2019-05-13T16:26:32.866Z,20.30
2019-05-13T16:29:02.069Z,20.20
2019-05-13T16:31:31.698Z,20.10
2019-05-13T16:34:01.028Z,20.00
2019-05-13T16:36:28.342Z,19.90
2019-05-13T16:38:55.900Z,19.80
2019-05-13T16:41:23.397Z,19.70
2019-05-13T16:43:50.921Z,19.50
2019-05-13T16:46:18.335Z,19.40
2019-05-13T16:48:45.796Z,19.30
2019-05-13T16:51:13.138Z,19.20
2019-05-13T16:53:43.019Z,19.10
2019-05-13T16:56:25.368Z,19.00
2019-05-13T16:58:41.760Z,18.90
2019-05-13T17:01:11.785Z,20.50
2019-05-13T17:03:41.517Z,18.70
2019-05-13T17:06:08.854Z,18.80
2019-05-13T17:08:36.195Z,18.70
2019-05-13T17:11:03.817Z,18.60
2019-05-13T17:13:31.571Z,18.70
2019-05-13T17:16:01.398Z,18.70
2019-05-13T17:18:28.702Z,18.60
2019-05-13T17:20:57.329Z,18.70
2019-05-13T17:23:25.110Z,18.60
2019-05-13T17:25:52.546Z,18.60
2019-05-13T17:28:21.939Z,18.60
2019-05-13T17:30:51.765Z,18.60
2019-05-13T17:33:18.547Z,18.50
2019-05-13T17:35:46.003Z,18.60
2019-05-13T17:38:13.476Z,18.50
2019-05-13T17:40:41.978Z,18.50
2019-05-13T17:43:11.789Z,18.50
2019-05-13T17:45:39.005Z,18.40
2019-05-13T17:48:06.500Z,18.30
2019-05-13T17:50:33.981Z,18.30
2019-05-13T17:53:02.177Z,18.20
2019-05-13T17:55:32.308Z,18.10
2019-05-13T17:58:01.408Z,18.30
2019-05-13T18:00:29.021Z,18.10
2019-05-13T18:02:56.338Z,18.00
2019-05-13T18:05:23.791Z,18.00
2019-05-13T18:07:51.399Z,18.00
2019-05-13T18:10:18.866Z,17.90
2019-05-13T18:12:46.360Z,17.80
2019-05-13T18:15:14.433Z,17.80
2019-05-13T18:17:42.355Z,17.70
2019-05-13T18:20:10.267Z,17.70
2019-05-13T18:22:38.001Z,17.60
2019-05-13T18:25:06.051Z,17.60
2019-05-13T18:27:35.500Z,17.50
2019-05-13T18:30:03.747Z,17.70
2019-05-13T18:32:36.250Z,17.30
2019-05-13T18:35:04.050Z,17.30
2019-05-13T18:37:33.843Z,15.40
2019-05-13T18:40:02.539Z,17.30
2019-05-13T18:42:31.783Z,20.00
2019-05-13T18:45:02.202Z,20.00
2019-05-13T18:47:31.599Z,17.20
2019-05-13T18:50:02.304Z,17.20
2019-05-13T18:52:36.789Z,17.10
2019-05-13T18:55:08.918Z,17.20
2019-05-13T18:58:41.669Z,18.40
2019-05-13T19:04:53.222Z,17.20
2019-05-13T19:10:41.380Z,16.70
2019-05-13T19:11:22.530Z,17.10
2019-05-13T19:13:08.784Z,17.30
2019-05-13T19:15:37.780Z,17.10
2019-05-13T19:18:27.478Z,17.10
2019-05-13T19:20:54.878Z,17.10
2019-05-13T19:23:22.407Z,17.10
2019-05-13T19:25:51.369Z,17.10
2019-05-13T19:28:18.986Z,17.00
2019-05-13T19:30:46.436Z,17.00
2019-05-13T19:33:13.831Z,17.00
2019-05-13T19:35:42.556Z,17.00
2019-05-13T19:38:15.244Z,17.00
2019-05-13T19:40:48.524Z,17.00
2019-05-13T19:43:16.109Z,17.80
2019-05-13T19:45:43.967Z,16.90
2019-05-13T19:51:34.662Z,14.40
2019-05-13T19:54:04.946Z,16.90
2019-05-13T19:56:35.889Z,16.80
2019-05-13T19:59:03.340Z,16.70
2019-05-13T20:01:32.185Z,16.70
2019-05-13T20:04:02.148Z,16.70
2019-05-13T20:06:29.085Z,16.60
2019-05-13T20:08:57.701Z,16.50
2019-05-13T20:11:25.055Z,16.50
2019-05-13T20:13:53.755Z,16.50
2019-05-13T20:16:22.209Z,16.40
2019-05-13T20:18:53.465Z,16.40
2019-05-13T20:21:20.978Z,16.40
2019-05-13T20:23:48.454Z,16.30
2019-05-13T20:26:15.826Z,16.30
2019-05-13T20:28:43.209Z,16.30
2019-05-13T20:31:11.164Z,16.20
2019-05-13T20:33:40.154Z,16.20
2019-05-13T20:36:07.956Z,16.40
2019-05-13T20:38:35.446Z,16.10
2019-05-13T20:41:02.768Z,16.20
2019-05-13T20:43:32.674Z,16.10
2019-05-13T20:46:01.747Z,16.00
2019-05-13T20:48:31.516Z,16.00
2019-05-13T20:50:58.544Z,14.50
2019-05-13T20:53:25.958Z,15.90
2019-05-13T20:55:53.522Z,15.90
2019-05-13T20:58:21.431Z,15.90
2019-05-13T21:00:51.384Z,15.90
2019-05-13T21:03:18.394Z,15.90
2019-05-13T21:05:45.882Z,15.90
2019-05-13T21:08:13.338Z,14.50
2019-05-13T21:10:42.197Z,15.90
2019-05-13T21:13:12.083Z,15.80
2019-05-13T21:15:39.008Z,15.80
2019-05-13T21:18:06.356Z,15.80
2019-05-13T21:20:33.829Z,15.90
2019-05-13T21:23:02.262Z,15.80
2019-05-13T21:25:31.090Z,15.80
2019-05-13T21:27:58.896Z,15.80
2019-05-13T21:30:26.341Z,15.80
2019-05-13T21:32:53.854Z,15.80
2019-05-13T21:35:21.387Z,12.80
2019-05-13T21:37:51.048Z,15.80
2019-05-13T21:40:18.698Z,15.90
2019-05-13T21:42:46.152Z,15.80
2019-05-13T21:45:13.619Z,15.70
2019-05-13T21:47:41.004Z,15.70
2019-05-13T21:50:11.341Z,15.80
2019-05-13T21:52:38.324Z,14.00
2019-05-13T21:55:06.553Z,15.70
2019-05-13T21:57:33.982Z,15.70
2019-05-13T22:00:02.072Z,15.70
2019-05-13T22:02:31.671Z,15.60
2019-05-13T22:05:00.952Z,15.60
2019-05-13T22:07:28.260Z,15.60
2019-05-13T22:09:55.745Z,15.50
2019-05-13T22:12:23.069Z,15.50
2019-05-13T22:14:51.738Z,15.50
2019-05-13T22:17:22.215Z,15.40
2019-05-13T22:19:51.217Z,15.40
2019-05-13T22:22:18.896Z,15.40
2019-05-13T22:24:46.255Z,15.40
2019-05-13T22:27:13.618Z,15.40
2019-05-13T22:29:41.548Z,15.30
2019-05-13T22:32:11.149Z,15.30
2019-05-13T22:34:38.253Z,15.20
2019-05-13T22:37:05.713Z,15.30
2019-05-13T22:39:34.843Z,16.30
2019-05-13T22:42:02.395Z,15.20
2019-05-13T22:44:32.250Z,15.20
2019-05-13T22:46:59.121Z,15.20
2019-05-13T22:49:26.513Z,15.10
2019-05-13T22:51:53.932Z,15.10
2019-05-13T22:54:21.316Z,15.10
2019-05-13T22:56:48.769Z,15.00
2019-05-13T22:59:16.150Z,15.00
2019-05-13T23:01:43.567Z,15.30
2019-05-13T23:04:11.424Z,15.00
2019-05-13T23:06:39.227Z,14.90
2019-05-13T23:09:06.641Z,14.90
2019-05-13T23:11:34.038Z,14.80
2019-05-13T23:14:09.737Z,14.80
2019-05-13T23:16:31.618Z,14.80
2019-05-13T23:18:59.477Z,14.80
2019-05-13T23:21:26.924Z,14.70
2019-05-13T23:23:54.280Z,14.70
2019-05-13T23:26:21.667Z,14.70
2019-05-13T23:28:49.079Z,14.70
2019-05-13T23:31:16.544Z,14.70
2019-05-13T23:33:44.023Z,14.60
2019-05-13T23:36:11.955Z,14.60
2019-05-13T23:41:15.241Z,14.50
2019-05-13T23:43:42.626Z,14.50
2019-05-13T23:46:11.736Z,14.50
2019-05-13T23:48:41.324Z,14.50
2019-05-13T23:51:08.812Z,14.50
2019-05-13T23:53:36.337Z,14.40
2019-05-13T23:56:03.658Z,14.40
2019-05-13T23:58:32.136Z,14.40
